Terminal Aerodrome Forecast
Issued by NWS

Home | Current Version | Previous Version | Text Only | Print | Product List | Glossary On
Versions: 1 2 3 4 5 6 7 8 9 10 11 12 13 14 15 16
000
FTUS43 KPAH 010540
TAFCGI
TAF
KCGI 010540Z 0106/0206 VRB03KT P6SM OVC050
     FM011000 05002KT 3SM -FZRASN BR FEW010 OVC025
     FM011400 VRB02KT 2SM -DZ BR OVC008
     FM011700 33005KT 5SM -DZ BR OVC005
     FM020000 36006KT P6SM OVC020=

USA.gov is the U.S. government's official web portal to all federal, state and local government web resources and services.